Glennallen, AK (99588)

5:30 AM AKST on February 09, 2016 (GMT -0900)
Gulkana | | Change Station
CLOSE
Current Station
Airport
Location: Gulkana,
Elevation: 1578 ft
Nearby Weather Stations

Elev 1578 ft 62.16 °N, 145.46 °W | Updated 37 minutes ago

Clear
Clear
-10 °F
Feels Like -10 °F
N
0
Wind Variable Wind from North

Today
High -- | Low -- °F
--% Chance of Precip.
Yesterday
High -- | Low -- °F
Precip. -- in
Pressure 30.27 in
Visibility 10.0 miles
Clouds Clear
Dew Point -15 °F
Humidity 78%
Rainfall 0.00 in
Snow Depth Not available.
8:49 AM 5:10 PM
New Moon, 1% visible
METAR PAGK 091353Z AUTO 00000KT 10SM CLR M23/M26 A3008 RMK AO2 SLP249 T12331261 TSNO $
Pressure 30.27 in
Visibility 10.0 miles
Clouds Clear
Dew Point -15 °F
Humidity 78%
Rainfall 0.00 in
Snow Depth Not available.
8:49 AM 5:10 PM
New Moon, 1% visible
METAR PAGK 091353Z AUTO 00000KT 10SM CLR M23/M26 A3008 RMK AO2 SLP249 T12331261 TSNO $

10-Day Weather Forecast

Almanac

Astronomy

Feb. 09, 2016 Rise Set
Actual Time
Civil Twilight
Nautical Twilight
Astronomical Twilight
Moon
Length of Visible Light
Length of Day
Tomorrow will be .
, % of the Moon is Illuminated

Today's Extremes

State Highs State Lows

Community

WunderPhotos

Upload Photos

1,891,602 photos uploaded!

WunderBlog® & News

Nearby

Air Quality

  Air Quality AQ Index Pollutant
Not available.

Snow Depth

Station Depth Elevation

Earthquake Activity

City Distance Mag. Time & Date
Minimum magnitude displayed is 2.5.

Coastal Water Temperatures

Place Temperature

Stations

Nearby Weather Stations

Station Location Temp. Windchill Dew Point Humidity Wind Precip. Elev Updated Type
                   

Watches & Warnings

There are currently no watches in effect.